Time;durP1;ratioP1;P1;durP2;ratioP2;P2;SDS_P1;SDS_P2;PMS_P1;PMS_P2;Temp;Humidity;BMP_temperature;BMP_pressure;BME280_temperature;BME280_humidity;BME280_pressure;Samples;Min_cycle;Max_cycle;Signal;HPM_P1;HPM_P2
2021/08/01 00:00:21;;;;;;;;;;;;;;;23.39;52.98;94924.13;1049175;28;862;-72
2021/08/01 00:00:52;;;;;;;;;;;;;;;23.37;53.27;94923.66;1047972;28;1217;-71
2021/08/01 00:01:22;;;;;;;;;;;;;;;23.37;53.07;94921.03;1041294;28;1161;-72
2021/08/01 00:01:53;;;;;;;;;;;;;;;23.37;52.98;94923.66;1042267;28;1111;-72
2021/08/01 00:02:23;;;;;;;;;;;;;;;23.37;53.19;94918.38;1045254;28;1130;-72
2021/08/01 00:02:54;;;;;;;;;;;;;;;23.37;53.24;94918.38;1045119;28;1357;-72
2021/08/01 00:03:24;;;;;;;;;;;;;;;23.36;52.94;94922.91;1044996;28;1010;-72
2021/08/01 00:03:55;;;;;;;;;;;;;;;23.35;53.24;94910.75;1042819;28;2620;-72
2021/08/01 00:04:25;;;;;;;;;;;;;;;23.34;53.21;94908.44;1042553;28;2506;-71
2021/08/01 00:04:57;;;;;;;;;;;;;;;;;;1044815;28;1228;-72
2021/08/01 00:05:27;;;;;;;;;;;;;;;23.35;52.80;94908.13;1041245;28;1682;-72
2021/08/01 00:05:57;;;;;;;;;;;;;;;23.35;52.89;94910.75;1043300;28;1882;-72
2021/08/01 00:06:28;;;;;;;;;;;;;;;23.34;53.01;94903.16;1036688;28;1303;-72
2021/08/01 00:06:58;;;;;;;;;;;;;;;;;;1035068;28;2219;-72
2021/08/01 00:07:28;;;;;;;;;;;;;;;23.32;53.01;94911.41;1035834;28;1235;-72
2021/08/01 00:07:58;;;;;;;;;;;;;;;23.32;53.16;94911.41;1039436;28;1179;-72
2021/08/01 00:08:29;;;;;;;;;;;;;;;23.32;52.98;94913.25;1040606;28;970;-72
2021/08/01 00:08:59;;;;;;;;;;;;;;;23.31;52.76;94909.78;1043273;28;2315;-71
2021/08/01 00:09:29;;;;;;;;;;;;;;;23.32;53.04;94914.03;1044563;28;1325;-72
2021/08/01 00:09:59;;;;;;;;;;;;;;;23.32;52.75;94914.03;1039064;28;2758;-72
2021/08/01 00:10:30;;;;;;;;;;;;;;;23.31;52.80;94912.44;1037953;28;1172;-72
2021/08/01 00:11:00;;;;;;;;;;;;;;;23.31;52.89;94914.28;1040901;28;1152;-72
2021/08/01 00:11:30;;;;;;;;;;;;;;;23.30;52.88;94912.75;1044891;28;1246;-72
2021/08/01 00:12:01;;;;;;;;;;;;;;;23.30;52.76;94913.53;1044623;28;1252;-72
2021/08/01 00:12:31;;;;;;;;;;;;;;;23.29;52.77;94911.97;1044817;28;1630;-72
2021/08/01 00:13:01;;;;;;;;;;;;;;;23.30;53.00;94910.13;1044445;28;1154;-72
2021/08/01 00:13:32;;;;;;;;;;;;;;;23.29;52.95;94914.63;1044899;28;712;-72
2021/08/01 00:14:02;;;;;;;;;;;;;;;23.29;52.77;94905.91;1044989;28;1233;-72
2021/08/01 00:14:32;;;;;;;;;;;;;;;23.28;52.98;94907.78;1044962;28;1157;-72
2021/08/01 00:15:03;;;;;;;;;;;;;;;23.28;52.95;94909.66;1042066;28;2281;-71
2021/08/01 00:15:33;;;;;;;;;;;;;;;23.27;52.98;94902.78;1041139;28;2362;-71
2021/08/01 00:16:03;;;;;;;;;;;;;;;23.27;52.91;94898.28;1043582;28;1139;-72
2021/08/01 00:16:33;;;;;;;;;;;;;;;23.28;52.92;94904.34;1045187;28;1153;-72
2021/08/01 00:17:04;;;;;;;;;;;;;;;23.29;52.78;94913.84;1042473;28;2364;-72
2021/08/01 00:17:34;;;;;;;;;;;;;;;23.27;53.15;94908.06;1041073;28;1089;-72
2021/08/01 00:18:04;;;;;;;;;;;;;;;23.28;52.89;94910.44;1043182;28;1164;-72
2021/08/01 00:18:35;;;;;;;;;;;;;;;23.28;52.79;94907.78;1040583;28;1182;-72
2021/08/01 00:19:05;;;;;;;;;;;;;;;23.29;52.96;94911.19;1040436;28;1249;-72
2021/08/01 00:19:35;;;;;;;;;;;;;;;23.29;52.97;94913.84;1040313;28;1026;-72
2021/08/01 00:20:06;;;;;;;;;;;;;;;23.29;52.70;94913.84;1042505;28;2509;-73
2021/08/01 00:20:36;;;;;;;;;;;;;;;23.28;52.89;94915.72;1036635;28;869;-72
2021/08/01 00:21:06;;;;;;;;;;;;;;;23.29;52.82;94921.75;1039786;28;1145;-72
2021/08/01 00:21:37;;;;;;;;;;;;;;;23.28;53.05;94917.59;1032219;28;1191;-72
2021/08/01 00:22:07;;;;;;;;;;;;;;;23.28;53.14;94917.59;1036114;28;1180;-72
2021/08/01 00:22:37;;;;;;;;;;;;;;;23.27;52.86;94918.66;1036167;28;2004;-72
2021/08/01 00:23:07;;;;;;;;;;;;;;;23.28;53.02;94922.88;1035872;28;1136;-72
2021/08/01 00:23:38;;;;;;;;;;;;;;;23.26;52.98;94922.41;1035349;28;1756;-72
2021/08/01 00:24:08;;;;;;;;;;;;;;;23.26;53.02;94917.91;1043940;28;1968;-72
2021/08/01 00:24:38;;;;;;;;;;;;;;;23.27;53.27;94922.09;1048376;28;1182;-71
2021/08/01 00:25:09;;;;;;;;;;;;;;;23.27;53.35;94923.94;1044676;28;2561;-72
2021/08/01 00:25:39;;;;;;;;;;;;;;;23.26;53.20;94923.19;1045235;28;943;-73
2021/08/01 00:26:09;;;;;;;;;;;;;;;23.27;53.42;94930.00;1046984;28;1713;-72
2021/08/01 00:26:40;;;;;;;;;;;;;;;23.27;53.15;94929.22;1044340;28;1039;-71
2021/08/01 00:27:10;;;;;;;;;;;;;;;23.28;53.04;94923.66;1048784;28;1218;-72
2021/08/01 00:27:40;;;;;;;;;;;;;;;23.30;53.40;94920.69;1049322;28;843;-72
2021/08/01 00:28:11;;;;;;;;;;;;;;;23.30;53.02;94929.41;1045448;28;1145;-73
2021/08/01 00:28:41;;;;;;;;;;;;;;;23.30;53.27;94929.41;1044884;28;1221;-72
2021/08/01 00:29:11;;;;;;;;;;;;;;;23.31;53.11;94930.16;1038929;28;2516;-72
2021/08/01 00:29:41;;;;;;;;;;;;;;;23.32;52.97;94937.06;1032547;28;706;-73
2021/08/01 00:30:12;;;;;;;;;;;;;;;23.31;53.16;94930.94;1035186;28;2540;-73
2021/08/01 00:30:42;;;;;;;;;;;;;;;23.31;52.97;94935.44;1035491;28;2894;-73
2021/08/01 00:31:12;;;;;;;;;;;;;;;23.30;53.17;94923.34;1044758;28;1230;-72
2021/08/01 00:31:43;;;;;;;;;;;;;;;23.30;53.26;94939.19;1044955;28;886;-73
2021/08/01 00:32:13;;;;;;;;;;;;;;;23.30;53.12;94931.28;1040307;28;1468;-73
2021/08/01 00:32:44;;;;;;;;;;;;;;;23.29;53.26;94930.47;1039249;28;1688;-73
2021/08/01 00:33:14;;;;;;;;;;;;;;;23.30;53.18;94931.28;1036580;28;1038;-72
2021/08/01 00:33:44;;;;;;;;;;;;;;;23.31;53.24;94924.88;1040516;28;1322;-72
2021/08/01 00:34:15;;;;;;;;;;;;;;;23.31;52.95;94923.03;1044248;28;1420;-73
2021/08/01 00:34:45;;;;;;;;;;;;;;;23.31;53.05;94930.16;1044051;28;1263;-73
2021/08/01 00:35:15;;;;;;;;;;;;;;;23.32;53.32;94926.47;1043812;28;2886;-73
2021/08/01 00:35:46;;;;;;;;;;;;;;;23.32;53.16;94926.47;1045112;28;1151;-73
2021/08/01 00:36:16;;;;;;;;;;;;;;;23.32;53.33;94924.63;1042892;28;1927;-73
2021/08/01 00:36:46;;;;;;;;;;;;;;;23.32;53.37;94926.47;1041716;28;1127;-73
2021/08/01 00:37:16;;;;;;;;;;;;;;;23.33;53.28;94928.03;1049267;28;1002;-73
2021/08/01 00:37:47;;;;;;;;;;;;;;;23.34;53.21;94929.59;1041492;28;1092;-73
2021/08/01 00:38:17;;;;;;;;;;;;;;;23.33;53.29;94925.38;1044262;28;2868;-73
2021/08/01 00:38:47;;;;;;;;;;;;;;;23.32;53.04;94937.84;1040376;28;2894;-73
2021/08/01 00:39:17;;;;;;;;;;;;;;;23.32;53.08;94931.75;1044646;28;1159;-73
2021/08/01 00:39:48;;;;;;;;;;;;;;;23.32;53.26;94929.13;1040308;28;1384;-73
2021/08/01 00:40:20;;;;;;;;;;;;;;;23.32;53.25;94927.25;1033248;28;2575;-72
2021/08/01 00:40:50;;;;;;;;;;;;;;;23.32;53.13;94929.13;1038894;28;1227;-73
2021/08/01 00:41:20;;;;;;;;;;;;;;;23.31;53.24;94925.66;1037561;28;1444;-73
2021/08/01 00:41:51;;;;;;;;;;;;;;;23.31;52.97;94928.31;1037874;28;1159;-72
2021/08/01 00:42:21;;;;;;;;;;;;;;;23.32;53.11;94924.63;1046000;28;969;-73
2021/08/01 00:42:51;;;;;;;;;;;;;;;23.32;53.01;94934.41;1047773;28;1190;-73
2021/08/01 00:43:21;;;;;;;;;;;;;;;23.31;53.21;94924.88;1044524;28;1175;-73
2021/08/01 00:43:52;;;;;;;;;;;;;;;23.31;53.25;94925.66;1044863;28;1918;-73
2021/08/01 00:44:22;;;;;;;;;;;;;;;23.32;53.13;94926.47;1044904;28;1081;-73
2021/08/01 00:44:53;;;;;;;;;;;;;;;23.33;53.03;94933.31;1043857;28;1686;-72
2021/08/01 00:45:23;;;;;;;;;;;;;;;23.32;53.15;94923.84;1043481;28;2621;-73
2021/08/01 00:45:53;;;;;;;;;;;;;;;23.33;53.01;94925.38;1041956;28;1454;-73
2021/08/01 00:46:24;;;;;;;;;;;;;;;23.32;52.87;94923.84;1048967;28;824;-73
2021/08/01 00:46:54;;;;;;;;;;;;;;;23.32;52.83;94927.25;1048028;28;1043;-73
2021/08/01 00:47:24;;;;;;;;;;;;;;;23.31;52.80;94919.59;1046985;28;1182;-72
2021/08/01 00:47:54;;;;;;;;;;;;;;;23.30;52.99;94921.47;1047354;28;1225;-73
2021/08/01 00:48:26;;;;;;;;;;;;;;;23.30;53.03;94915.41;1044497;28;1171;-73
2021/08/01 00:48:56;;;;;;;;;;;;;;;23.30;52.74;94918.03;1044696;28;1226;-73
2021/08/01 00:49:26;;;;;;;;;;;;;;;23.28;53.00;94917.59;1044451;28;1061;-73
2021/08/01 00:49:57;;;;;;;;;;;;;;;23.28;52.77;94909.66;1044353;28;1065;-73
2021/08/01 00:50:27;;;;;;;;;;;;;;;23.27;53.00;94914.16;1040897;28;2486;-73
2021/08/01 00:50:57;;;;;;;;;;;;;;;23.27;52.98;94908.84;1038386;28;1175;-73
2021/08/01 00:51:30;;;;;;;;;;;;;;;23.26;52.76;94907.31;1040564;28;788;-73
2021/08/01 00:52:01;;;;;;;;;;;;;;;23.25;52.74;94900.47;1040460;28;1229;-73
2021/08/01 00:52:31;;;;;;;;;;;;;;;23.26;52.87;94901.25;1037044;28;1406;-73
2021/08/01 00:53:02;;;;;;;;;;;;;;;23.26;52.86;94901.25;1040465;28;1140;-73
2021/08/01 00:53:32;;;;;;;;;;;;;;;23.26;52.82;94901.25;1038228;28;1753;-73
2021/08/01 00:54:02;;;;;;;;;;;;;;;23.24;52.66;94898.91;1039162;28;1140;-73
2021/08/01 00:54:33;;;;;;;;;;;;;;;23.26;52.92;94895.97;1044738;28;887;-73
2021/08/01 00:55:04;;;;;;;;;;;;;;;23.24;52.92;94898.91;1044125;28;2300;-72
2021/08/01 00:55:35;;;;;;;;;;;;;;;23.24;52.94;94898.13;1043851;28;2193;-73
2021/08/01 00:56:05;;;;;;;;;;;;;;;23.23;52.71;94893.91;1047999;28;1131;-73
2021/08/01 00:56:36;;;;;;;;;;;;;;;23.23;52.98;94896.56;1044008;28;1179;-73
2021/08/01 00:57:06;;;;;;;;;;;;;;;23.23;52.63;94899.22;1036606;28;1183;-73
2021/08/01 00:57:36;;;;;;;;;;;;;;;23.21;52.87;94899.53;1036479;28;1082;-73
2021/08/01 00:58:07;;;;;;;;;;;;;;;23.20;52.70;94897.97;1039491;28;1156;-73
2021/08/01 00:58:37;;;;;;;;;;;;;;;23.20;52.92;94903.28;1044840;28;1244;-73
2021/08/01 00:59:07;;;;;;;;;;;;;;;23.20;52.77;94905.91;1043941;28;1151;-73
2021/08/01 00:59:38;;;;;;;;;;;;;;;23.18;53.07;94897.53;1044552;28;796;-73
2021/08/01 01:00:22;;;;;;;;;;;;;;;23.19;52.77;94906.22;1042739;28;2570;-72
2021/08/01 01:01:33;;;;;;;;;;;;;;;23.20;53.12;94905.13;1040444;28;1601;-73
2021/08/01 01:02:05;;;;;;;;;;;;;;;23.20;53.14;94910.41;1039525;28;1131;-73
2021/08/01 01:02:36;;;;;;;;;;;;;;;23.20;53.05;94907.78;1040659;28;1045;-72
2021/08/01 01:03:16;;;;;;;;;;;;;;;23.19;53.00;94914.91;1036749;28;1128;-73
2021/08/01 01:03:50;;;;;;;;;;;;;;;23.18;53.08;94900.16;1036937;28;2551;-73
2021/08/01 01:04:30;;;;;;;;;;;;;;;23.20;53.07;94907.78;1033584;28;2474;-73
2021/08/01 01:05:06;;;;;;;;;;;;;;;23.19;53.09;94904.34;1036872;28;2548;-72
2021/08/01 01:05:37;;;;;;;;;;;;;;;23.20;52.88;94907.78;1035535;28;2629;-72
2021/08/01 01:06:31;;;;;;;;;;;;;;;23.19;53.07;94906.22;1040853;28;2502;-72
2021/08/01 01:07:12;;;;;;;;;;;;;;;23.20;53.08;94907.78;1038867;28;1448;-72
2021/08/01 01:07:48;;;;;;;;;;;;;;;23.19;53.08;94908.84;1036013;28;1372;-72
2021/08/01 01:08:37;;;;;;;;;;;;;;;23.19;52.82;94908.84;1026202;28;2841;-72
2021/08/01 01:09:08;;;;;;;;;;;;;;;23.19;52.75;94906.22;1035078;28;2787;-72
2021/08/01 01:09:39;;;;;;;;;;;;;;;23.19;52.94;94906.22;1031487;28;1611;-72
2021/08/01 01:10:14;;;;;;;;;;;;;;;23.17;52.79;94903.09;1033392;28;2958;-72
2021/08/01 01:10:45;;;;;;;;;;;;;;;23.17;52.93;94909.16;1029482;28;1121;-72
2021/08/01 01:11:16;;;;;;;;;;;;;;;23.17;52.71;94905.75;1030151;28;1245;-72
2021/08/01 01:11:56;;;;;;;;;;;;;;;23.17;52.71;94905.75;1031564;28;1415;-72
2021/08/01 01:12:31;;;;;;;;;;;;;;;23.16;52.67;94912.88;1028129;28;1459;-72
2021/08/01 01:13:14;;;;;;;;;;;;;;;23.15;53.00;94910.56;1028219;28;1193;-72
2021/08/01 01:13:45;;;;;;;;;;;;;;;23.15;52.89;94907.91;1029770;28;1827;-73
2021/08/01 01:14:16;;;;;;;;;;;;;;;23.15;52.93;94907.91;1034797;28;795;-73
2021/08/01 01:14:50;;;;;;;;;;;;;;;23.13;52.77;94908.22;1038228;28;1312;-72
2021/08/01 01:15:22;;;;;;;;;;;;;;;23.14;52.69;94914.31;1038119;28;2477;-72
2021/08/01 01:15:54;;;;;;;;;;;;;;;23.13;52.93;94912.72;1034359;28;1475;-72
2021/08/01 01:16:25;;;;;;;;;;;;;;;23.13;52.66;94910.88;1038576;28;1155;-73
2021/08/01 01:17:01;;;;;;;;;;;;;;;23.15;52.54;94910.56;1028148;28;1421;-73
2021/08/01 01:17:54;;;;;;;;;;;;;;;23.15;52.68;94921.91;1031876;28;1264;-73
2021/08/01 01:18:38;;;;;;;;;;;;;;;23.14;52.75;94916.94;1029676;28;1128;-73
2021/08/01 01:19:10;;;;;;;;;;;;;;;23.13;52.69;94907.44;1037250;28;1148;-72
2021/08/01 01:19:50;;;;;;;;;;;;;;;23.14;52.88;94909.00;1031838;28;1347;-72
2021/08/01 01:20:26;;;;;;;;;;;;;;;23.13;52.58;94913.53;1032998;28;2522;-73
2021/08/01 01:20:56;;;;;;;;;;;;;;;23.13;52.53;94907.44;1038236;28;1168;-73
2021/08/01 01:21:42;;;;;;;;;;;;;;;23.12;52.54;94911.94;1042703;28;1218;-72
2021/08/01 01:22:35;;;;;;;;;;;;;;;23.12;52.48;94908.56;1043173;28;1716;-72
2021/08/01 01:23:18;;;;;;;;;;;;;;;23.11;52.76;94909.63;1037298;28;1180;-73
2021/08/01 01:23:51;;;;;;;;;;;;;;;23.12;52.76;94906.66;1037990;28;1198;-73
2021/08/01 01:24:23;;;;;;;;;;;;;;;23.11;52.71;94909.63;1036825;28;1156;-73
2021/08/01 01:24:53;;;;;;;;;;;;;;;23.10;52.57;94908.09;1042385;28;1245;-73
2021/08/01 01:25:36;;;;;;;;;;;;;;;23.09;52.53;94914.44;1038012;28;2532;-73
2021/08/01 01:26:07;;;;;;;;;;;;;;;23.08;52.38;94904.97;1035375;28;1195;-73
2021/08/01 01:26:40;;;;;;;;;;;;;;;23.08;52.52;94910.25;1038072;28;990;-72
2021/08/01 01:27:14;;;;;;;;;;;;;;;23.07;52.46;94906.81;1038116;28;1367;-73
2021/08/01 01:27:46;;;;;;;;;;;;;;;23.06;52.56;94901.84;1037213;28;1223;-73
2021/08/01 01:28:34;;;;;;;;;;;;;;;23.05;52.54;94900.28;1040451;28;1060;-73
2021/08/01 01:29:08;;;;;;;;;;;;;;;23.06;52.58;94907.13;1043239;28;1084;-73
2021/08/01 01:29:39;;;;;;;;;;;;;;;23.04;52.29;94904.78;1044755;28;1201;-73
2021/08/01 01:30:09;;;;;;;;;;;;;;;23.02;52.26;94901.69;1041396;28;1708;-72
2021/08/01 01:30:43;;;;;;;;;;;;;;;23.00;52.16;94898.56;1043239;28;2979;-72
2021/08/01 01:31:13;;;;;;;;;;;;;;;23.00;52.24;94895.91;1048510;28;1167;-73
2021/08/01 01:31:47;;;;;;;;;;;;;;;23.00;52.28;94888.00;1048886;28;1037;-73
2021/08/01 01:32:55;;;;;;;;;;;;;;;22.99;52.28;94886.44;1043907;28;1128;-73
2021/08/01 01:33:25;;;;;;;;;;;;;;;22.96;51.90;94878.34;1031891;28;1180;-73
2021/08/01 01:33:55;;;;;;;;;;;;;;;22.96;52.16;94873.06;1029517;28;1306;-73
2021/08/01 01:34:30;;;;;;;;;;;;;;;22.95;52.22;94864.38;1028207;28;1366;-73
2021/08/01 01:35:06;;;;;;;;;;;;;;;22.96;52.06;94862.47;1023204;28;2478;-73
2021/08/01 01:35:37;;;;;;;;;;;;;;;22.94;52.29;94859.38;1022591;28;2864;-73
2021/08/01 01:36:08;;;;;;;;;;;;;;;22.92;52.15;94851.75;1031254;28;1108;-73
2021/08/01 01:36:41;;;;;;;;;;;;;;;22.91;52.04;94847.56;1031954;28;1413;-73
2021/08/01 01:37:13;;;;;;;;;;;;;;;22.90;52.13;94845.22;1029281;28;1181;-73
2021/08/01 01:37:46;;;;;;;;;;;;;;;22.89;52.09;94835.75;1024231;29;1016;-73
2021/08/01 01:38:17;;;;;;;;;;;;;;;22.89;51.81;94838.41;1019245;29;1082;-73
2021/08/01 01:38:47;;;;;;;;;;;;;;;22.88;51.70;94834.19;1020125;28;2870;-73
2021/08/01 01:39:18;;;;;;;;;;;;;;;22.87;51.88;94837.94;1028944;28;2848;-72
2021/08/01 01:39:48;;;;;;;;;;;;;;;22.86;51.94;94836.34;1038463;28;1959;-73
2021/08/01 01:40:19;;;;;;;;;;;;;;;22.84;51.97;94831.38;1038490;28;2588;-72
2021/08/01 01:40:53;;;;;;;;;;;;;;;22.84;51.83;94827.97;1040938;28;970;-73
2021/08/01 01:41:24;;;;;;;;;;;;;;;22.83;51.55;94829.84;1044404;28;839;-73
2021/08/01 01:41:54;;;;;;;;;;;;;;;22.81;51.64;94821.47;1035211;28;1330;-72
2021/08/01 01:42:24;;;;;;;;;;;;;;;22.81;51.70;94810.88;1029252;28;1236;-73
2021/08/01 01:42:55;;;;;;;;;;;;;;;22.82;51.89;94807.16;1032952;28;1211;-73
2021/08/01 01:43:25;;;;;;;;;;;;;;;22.83;51.67;94800.00;1035990;28;1049;-72
2021/08/01 01:43:55;;;;;;;;;;;;;;;22.82;51.95;94790.50;1040284;28;1979;-73
2021/08/01 01:44:25;;;;;;;;;;;;;;;22.81;51.69;94786.31;1040647;28;804;-73
2021/08/01 01:44:56;;;;;;;;;;;;;;;22.81;51.93;94781.03;1044369;28;1187;-74
2021/08/01 01:45:28;;;;;;;;;;;;;;;22.81;51.65;94778.41;1042766;28;2571;-73
2021/08/01 01:45:58;;;;;;;;;;;;;;;22.80;51.79;94776.81;1042419;28;1183;-73
2021/08/01 01:46:28;;;;;;;;;;;;;;;22.79;51.69;94768.16;1040514;28;1080;-73
2021/08/01 01:46:59;;;;;;;;;;;;;;;22.79;51.80;94775.28;1036303;28;1322;-74
2021/08/01 01:47:29;;;;;;;;;;;;;;;22.78;51.42;94773.72;1030356;28;2545;-73
2021/08/01 01:47:59;;;;;;;;;;;;;;;22.77;51.74;94772.97;1032730;28;1266;-72
2021/08/01 01:48:29;;;;;;;;;;;;;;;22.78;51.60;94768.44;1033259;28;1159;-73
2021/08/01 01:48:59;;;;;;;;;;;;;;;22.76;51.72;94776.69;1033474;28;1488;-72
2021/08/01 01:49:30;;;;;;;;;;;;;;;22.76;51.54;94778.53;1032276;28;1350;-73
2021/08/01 01:50:00;;;;;;;;;;;;;;;22.75;51.85;94777.00;1030092;28;1224;-73
2021/08/01 01:50:30;;;;;;;;;;;;;;;22.75;51.52;94787.56;1033650;28;2875;-72
2021/08/01 01:51:01;;;;;;;;;;;;;;;22.75;51.42;94792.84;1036854;28;1113;-72
2021/08/01 01:51:31;;;;;;;;;;;;;;;22.74;51.36;94786.00;1033924;28;2913;-73
2021/08/01 01:52:02;;;;;;;;;;;;;;;22.74;51.44;94786.00;1041160;28;1081;-73
2021/08/01 01:52:33;;;;;;;;;;;;;;;22.74;51.48;94799.19;1048847;28;1232;-73
2021/08/01 01:53:03;;;;;;;;;;;;;;;22.73;51.54;94792.38;1043223;28;1434;-73
2021/08/01 01:53:33;;;;;;;;;;;;;;;22.73;51.56;94797.66;1039766;28;1196;-74
2021/08/01 01:54:04;;;;;;;;;;;;;;;22.73;51.51;94805.59;1042703;28;1448;-73
2021/08/01 01:54:34;;;;;;;;;;;;;;;22.71;51.45;94805.13;1040445;28;1179;-73
2021/08/01 01:55:05;;;;;;;;;;;;;;;22.67;51.43;94805.72;1035748;28;1764;-72
2021/08/01 01:55:35;;;;;;;;;;;;;;;22.67;51.57;94811.00;1029603;28;2754;-74
2021/08/01 01:56:07;;;;;;;;;;;;;;;22.68;51.16;94817.06;1031667;28;2864;-72
2021/08/01 01:56:37;;;;;;;;;;;;;;;22.67;51.14;94810.22;1036443;28;966;-72
2021/08/01 01:57:07;;;;;;;;;;;;;;;22.69;51.55;94812.56;1042933;28;1195;-73
2021/08/01 01:57:38;;;;;;;;;;;;;;;22.67;51.26;94811.00;1042262;28;1139;-72
2021/08/01 01:58:10;;;;;;;;;;;;;;;22.67;51.28;94818.16;1039051;28;1278;-72
2021/08/01 01:58:41;;;;;;;;;;;;;;;22.67;51.42;94816.28;1040459;28;824;-73
2021/08/01 01:59:12;;;;;;;;;;;;;;;22.67;51.38;94809.47;1030161;28;1345;-73
2021/08/01 01:59:42;;;;;;;;;;;;;;;22.67;51.38;94804.94;1024105;28;2503;-73
2021/08/01 02:00:13;;;;;;;;;;;;;;;22.67;51.22;94805.72;1028364;28;1167;-72
2021/08/01 02:00:44;;;;;;;;;;;;;;;22.67;51.24;94799.66;1031733;28;2888;-73
2021/08/01 02:01:14;;;;;;;;;;;;;;;22.67;51.15;94794.38;1040647;28;1156;-73
2021/08/01 02:01:45;;;;;;;;;;;;;;;22.67;51.55;94790.97;1040417;28;2907;-73
2021/08/01 02:02:15;;;;;;;;;;;;;;;22.65;51.61;94789.41;1043227;28;2865;-72
2021/08/01 02:02:45;;;;;;;;;;;;;;;22.67;51.62;94794.38;1043710;28;1412;-72
2021/08/01 02:03:16;;;;;;;;;;;;;;;22.65;51.22;94792.03;1044380;28;963;-73
2021/08/01 02:03:47;;;;;;;;;;;;;;;22.65;51.53;94786.75;1043692;28;2566;-72
2021/08/01 02:04:17;;;;;;;;;;;;;;;22.65;51.21;94789.41;1041668;28;2155;-72
2021/08/01 02:04:47;;;;;;;;;;;;;;;22.65;51.34;94776.19;1041138;28;1216;-71
2021/08/01 02:05:17;;;;;;;;;;;;;;;22.65;51.51;94776.19;1049169;28;1081;-73
2021/08/01 02:05:48;;;;;;;;;;;;;;;22.65;51.50;94764.84;1041042;28;2360;-71
2021/08/01 02:06:18;;;;;;;;;;;;;;;22.64;51.28;94769.38;1044673;28;1194;-73
2021/08/01 02:06:48;;;;;;;;;;;;;;;22.65;51.39;94763.00;1045114;28;1132;-73
2021/08/01 02:07:20;;;;;;;;;;;;;;;22.65;51.10;94759.56;1042326;28;1110;-72
2021/08/01 02:07:50;;;;;;;;;;;;;;;22.64;51.52;94755.38;1044550;28;1187;-73
2021/08/01 02:08:21;;;;;;;;;;;;;;;22.63;51.10;94757.25;1039302;28;871;-72
2021/08/01 02:08:57;;;;;;;;;;;;;;;22.62;51.30;94745.13;1040504;28;1194;-73
2021/08/01 02:09:47;;;;;;;;;;;;;;;22.62;51.33;94745.13;1043107;28;2525;-72
2021/08/01 02:10:34;;;;;;;;;;;;;;;22.61;51.15;94743.56;1040321;28;1085;-72
2021/08/01 02:11:04;;;;;;;;;;;;;;;22.60;51.44;94738.59;1043628;28;1100;-72
2021/08/01 02:11:55;;;;;;;;;;;;;;;22.59;51.39;94745.75;1044661;28;737;-72
2021/08/01 02:12:32;;;;;;;;;;;;;;;22.59;51.22;94744.97;1036936;28;1308;-72
2021/08/01 02:13:05;;;;;;;;;;;;;;;22.58;51.48;94746.84;1035747;28;1638;-72
2021/08/01 02:13:36;;;;;;;;;;;;;;;22.58;51.47;94754.78;1030700;28;1531;-72
2021/08/01 02:14:07;;;;;;;;;;;;;;;22.59;51.20;94758.94;1035950;28;1344;-73
2021/08/01 02:14:40;;;;;;;;;;;;;;;22.58;51.09;94753.97;1033231;28;2771;-72
2021/08/01 02:15:13;;;;;;;;;;;;;;;22.57;51.15;94761.09;1039679;28;1706;-72
2021/08/01 02:15:47;;;;;;;;;;;;;;;22.58;50.98;94759.25;1039058;28;2487;-72
2021/08/01 02:16:17;;;;;;;;;;;;;;;22.58;51.06;94756.63;1033417;28;1125;-72
2021/08/01 02:16:49;;;;;;;;;;;;;;;22.58;51.07;94759.25;1032990;28;1412;-72
2021/08/01 02:17:22;;;;;;;;;;;;;;;22.56;51.36;94764.84;1033364;28;1336;-72
2021/08/01 02:17:55;;;;;;;;;;;;;;;22.57;51.24;94765.59;1029679;28;1353;-72
2021/08/01 02:18:29;;;;;;;;;;;;;;;22.59;51.38;94771.38;1032672;28;2856;-73
2021/08/01 02:19:00;;;;;;;;;;;;;;;22.58;51.30;94770.63;1039240;28;1238;-72
2021/08/01 02:19:31;;;;;;;;;;;;;;;22.58;51.20;94775.91;1041046;28;982;-72
2021/08/01 02:20:02;;;;;;;;;;;;;;;22.59;51.33;94772.16;1041641;28;1186;-72
2021/08/01 02:20:41;;;;;;;;;;;;;;;22.60;51.36;94768.44;1039730;28;2717;-72
2021/08/01 02:21:12;;;;;;;;;;;;;;;22.59;51.27;94769.50;1043226;28;2623;-72
2021/08/01 02:21:42;;;;;;;;;;;;;;;22.60;50.98;94765.81;1040862;28;1844;-72
2021/08/01 02:22:13;;;;;;;;;;;;;;;22.58;51.07;94765.34;1036027;28;1787;-72
2021/08/01 02:22:43;;;;;;;;;;;;;;;22.58;51.13;94765.34;1033815;28;1187;-72
2021/08/01 02:23:17;;;;;;;;;;;;;;;22.58;51.59;94760.06;1039150;28;1232;-72
2021/08/01 02:23:47;;;;;;;;;;;;;;;22.59;51.20;94766.09;1037364;28;2743;-72
2021/08/01 02:24:18;;;;;;;;;;;;;;;22.58;51.09;94760.06;1044501;28;1963;-71
2021/08/01 02:24:48;;;;;;;;;;;;;;;22.57;51.16;94763.72;1040149;28;1370;-72
2021/08/01 02:25:18;;;;;;;;;;;;;;;22.55;51.12;94757.97;1033580;28;1132;-72
2021/08/01 02:25:48;;;;;;;;;;;;;;;22.54;50.97;94761.72;1031950;28;2970;-72
2021/08/01 02:26:19;;;;;;;;;;;;;;;22.55;51.26;94762.47;1031606;28;2859;-72
2021/08/01 02:26:50;;;;;;;;;;;;;;;22.54;50.96;94759.09;1033558;28;1335;-72
2021/08/01 02:27:20;;;;;;;;;;;;;;;22.53;50.88;94757.50;1027184;28;2929;-72
2021/08/01 02:27:50;;;;;;;;;;;;;;;22.52;50.87;94758.59;1028250;28;1188;-72
2021/08/01 02:28:21;;;;;;;;;;;;;;;22.54;50.90;94763.59;1028703;28;1121;-73
2021/08/01 02:28:51;;;;;;;;;;;;;;;22.54;50.86;94764.38;1040253;28;1138;-73
2021/08/01 02:29:22;;;;;;;;;;;;;;;22.54;51.17;94766.22;1044142;28;709;-72
2021/08/01 02:29:52;;;;;;;;;;;;;;;22.54;51.22;94772.28;1034668;28;1781;-73
2021/08/01 02:30:23;;;;;;;;;;;;;;;22.54;51.16;94774.94;1031728;28;1432;-72
2021/08/01 02:30:54;;;;;;;;;;;;;;;22.55;50.93;94779.13;1030091;28;2856;-72
2021/08/01 02:31:24;;;;;;;;;;;;;;;22.56;51.22;94778.03;1032481;28;1014;-72
2021/08/01 02:31:55;;;;;;;;;;;;;;;22.56;50.99;94778.03;1036060;28;1061;-73
2021/08/01 02:32:25;;;;;;;;;;;;;;;22.57;51.14;94778.78;1036275;28;1185;-72
2021/08/01 02:32:55;;;;;;;;;;;;;;;22.56;51.08;94780.69;1037979;28;1074;-72
2021/08/01 02:33:28;;;;;;;;;;;;;;;22.57;51.15;94784.06;1039986;28;1034;-72
2021/08/01 02:33:58;;;;;;;;;;;;;;;22.56;51.12;94787.81;1038956;28;1199;-73
2021/08/01 02:34:28;;;;;;;;;;;;;;;22.56;51.21;94790.47;1036280;28;1070;-73
2021/08/01 02:34:59;;;;;;;;;;;;;;;22.57;51.13;94792.78;1036154;28;1296;-72
2021/08/01 02:35:29;;;;;;;;;;;;;;;22.57;51.25;94795.44;1036561;28;1260;-73
2021/08/01 02:36:00;;;;;;;;;;;;;;;22.57;50.96;94802.56;1035294;28;2886;-72
2021/08/01 02:36:31;;;;;;;;;;;;;;;22.56;51.24;94804.44;1036676;28;815;-72
2021/08/01 02:37:01;;;;;;;;;;;;;;;22.58;51.09;94804.16;1032489;28;1580;-73
2021/08/01 02:37:31;;;;;;;;;;;;;;;22.57;51.27;94806.00;1029060;28;1161;-72
2021/08/01 02:38:02;;;;;;;;;;;;;;;22.58;51.07;94812.88;1031837;28;1560;-72
2021/08/01 02:38:32;;;;;;;;;;;;;;;22.59;51.03;94806.50;1031065;28;2827;-72
2021/08/01 02:39:03;;;;;;;;;;;;;;;22.59;50.99;94809.13;1035904;28;2341;-73
2021/08/01 02:39:33;;;;;;;;;;;;;;;22.60;51.19;94809.91;1036972;28;2912;-73
2021/08/01 02:40:04;;;;;;;;;;;;;;;22.60;50.97;94809.91;1042987;28;1578;-73
2021/08/01 02:40:35;;;;;;;;;;;;;;;22.60;51.10;94808.06;1036783;28;2888;-72
2021/08/01 02:41:05;;;;;;;;;;;;;;;22.61;51.20;94811.47;1031100;28;2106;-72
2021/08/01 02:41:36;;;;;;;;;;;;;;;22.60;51.21;94810.69;1027611;28;2852;-73
2021/08/01 02:42:07;;;;;;;;;;;;;;;22.60;50.99;94810.69;1032698;28;1228;-73
2021/08/01 02:42:37;;;;;;;;;;;;;;;22.61;51.33;94812.25;1037406;28;1022;-72
2021/08/01 02:43:10;;;;;;;;;;;;;;;22.61;51.25;94801.69;1037087;28;1467;-72
2021/08/01 02:43:40;;;;;;;;;;;;;;;22.60;51.20;94799.34;1043918;28;999;-72
2021/08/01 02:44:11;;;;;;;;;;;;;;;22.61;51.07;94795.63;1036800;28;1977;-73
2021/08/01 02:44:41;;;;;;;;;;;;;;;22.60;51.00;94789.56;1037006;28;1283;-73
2021/08/01 02:45:12;;;;;;;;;;;;;;;22.60;50.91;94783.50;1032891;28;1232;-72
2021/08/01 02:45:42;;;;;;;;;;;;;;;22.59;51.11;94781.94;1032638;28;2908;-72
2021/08/01 02:46:13;;;;;;;;;;;;;;;22.59;51.01;94771.38;1036718;28;1034;-72
2021/08/01 02:46:43;;;;;;;;;;;;;;;22.57;50.91;94769.00;1034406;28;1456;-71
2021/08/01 02:47:14;;;;;;;;;;;;;;;22.56;51.04;94762.19;1033122;28;1265;-72
2021/08/01 02:47:44;;;;;;;;;;;;;;;22.55;51.03;94760.63;1032838;28;2117;-73
2021/08/01 02:48:14;;;;;;;;;;;;;;;22.54;51.03;94758.31;1040725;28;1253;-72
2021/08/01 02:48:45;;;;;;;;;;;;;;;22.54;50.99;94755.66;1045185;28;1123;-72
2021/08/01 02:49:18;;;;;;;;;;;;;;;22.54;51.11;94760.94;1042712;28;1184;-73
2021/08/01 02:49:48;;;;;;;;;;;;;;;22.52;50.82;94755.94;1040849;28;1120;-72